sensor_id;sensor_type;location;lat;lon;timestamp;pressure;altitude;pressure_sealevel;temperature;humidity
68873;BME280;55907;50.806;12.882;2022-10-03T00:00:29;977.9;;;11.8;79.4
68873;BME280;55907;50.806;12.882;2022-10-03T00:03:32;977.9;;;11.8;79.7
68873;BME280;55907;50.806;12.882;2022-10-03T00:06:38;977.8;;;11.8;79.6
68873;BME280;55907;50.806;12.882;2022-10-03T00:09:42;977.9;;;11.7;79.7
68873;BME280;55907;50.806;12.882;2022-10-03T00:12:40;977.9;;;11.8;79.9
68873;BME280;55907;50.806;12.882;2022-10-03T00:15:39;977.9;;;11.8;79.8
68873;BME280;55907;50.806;12.882;2022-10-03T00:18:44;977.9;;;11.8;79.8
68873;BME280;55907;50.806;12.882;2022-10-03T00:21:46;978.0;;;11.8;79.6
68873;BME280;55907;50.806;12.882;2022-10-03T00:24:50;978.0;;;11.8;79.6
68873;BME280;55907;50.806;12.882;2022-10-03T00:27:44;978.1;;;11.8;79.6
68873;BME280;55907;50.806;12.882;2022-10-03T00:30:52;978.1;;;11.8;79.7
68873;BME280;55907;50.806;12.882;2022-10-03T00:33:58;978.1;;;11.8;79.9
68873;BME280;55907;50.806;12.882;2022-10-03T00:36:49;978.2;;;11.8;80.1
68873;BME280;55907;50.806;12.882;2022-10-03T00:39:55;978.1;;;11.8;80.0
68873;BME280;55907;50.806;12.882;2022-10-03T00:43:04;978.2;;;11.8;80.2
68873;BME280;55907;50.806;12.882;2022-10-03T00:46:04;978.2;;;11.8;80.4
68873;BME280;55907;50.806;12.882;2022-10-03T00:49:02;978.2;;;11.8;80.6
68873;BME280;55907;50.806;12.882;2022-10-03T00:52:05;978.3;;;11.8;80.5
68873;BME280;55907;50.806;12.882;2022-10-03T00:55:04;978.3;;;11.8;80.7
68873;BME280;55907;50.806;12.882;2022-10-03T00:58:02;978.3;;;11.8;80.9
68873;BME280;55907;50.806;12.882;2022-10-03T01:01:03;978.3;;;11.8;81.0
68873;BME280;55907;50.806;12.882;2022-10-03T01:04:13;978.3;;;11.8;81.2
68873;BME280;55907;50.806;12.882;2022-10-03T01:07:09;978.3;;;11.8;81.1
68873;BME280;55907;50.806;12.882;2022-10-03T01:10:10;978.3;;;11.8;81.2
68873;BME280;55907;50.806;12.882;2022-10-03T01:13:12;978.3;;;11.7;81.6
68873;BME280;55907;50.806;12.882;2022-10-03T01:16:12;978.3;;;11.7;81.3
68873;BME280;55907;50.806;12.882;2022-10-03T01:19:23;978.3;;;11.7;81.5
68873;BME280;55907;50.806;12.882;2022-10-03T01:22:24;978.4;;;11.7;81.5
68873;BME280;55907;50.806;12.882;2022-10-03T01:25:11;978.4;;;11.7;81.6
68873;BME280;55907;50.806;12.882;2022-10-03T01:28:18;978.4;;;11.7;81.7
68873;BME280;55907;50.806;12.882;2022-10-03T01:31:17;978.4;;;11.7;82.2
68873;BME280;55907;50.806;12.882;2022-10-03T01:34:21;978.4;;;11.6;82.4
68873;BME280;55907;50.806;12.882;2022-10-03T01:37:22;978.4;;;11.6;82.4
68873;BME280;55907;50.806;12.882;2022-10-03T01:40:24;978.4;;;11.6;82.7
68873;BME280;55907;50.806;12.882;2022-10-03T01:43:21;978.4;;;11.6;83.4
68873;BME280;55907;50.806;12.882;2022-10-03T01:46:22;978.4;;;11.6;83.0
68873;BME280;55907;50.806;12.882;2022-10-03T01:49:29;978.4;;;11.6;83.1
68873;BME280;55907;50.806;12.882;2022-10-03T01:52:31;978.4;;;11.5;83.0
68873;BME280;55907;50.806;12.882;2022-10-03T01:55:31;978.4;;;11.5;83.0
68873;BME280;55907;50.806;12.882;2022-10-03T01:58:31;978.4;;;11.4;83.2
68873;BME280;55907;50.806;12.882;2022-10-03T02:01:35;978.4;;;11.4;83.2
68873;BME280;55907;50.806;12.882;2022-10-03T02:04:35;978.4;;;11.4;83.4
68873;BME280;55907;50.806;12.882;2022-10-03T02:07:39;978.5;;;11.4;83.6
68873;BME280;55907;50.806;12.882;2022-10-03T02:10:40;978.5;;;11.4;83.5
68873;BME280;55907;50.806;12.882;2022-10-03T02:13:43;978.5;;;11.3;83.9
68873;BME280;55907;50.806;12.882;2022-10-03T02:16:39;978.5;;;11.3;84.7
68873;BME280;55907;50.806;12.882;2022-10-03T02:19:45;978.5;;;11.2;84.9
68873;BME280;55907;50.806;12.882;2022-10-03T02:22:42;978.6;;;11.2;85.2
68873;BME280;55907;50.806;12.882;2022-10-03T02:25:53;978.6;;;11.2;84.8
68873;BME280;55907;50.806;12.882;2022-10-03T02:28:50;978.6;;;11.1;85.5
68873;BME280;55907;50.806;12.882;2022-10-03T02:32:00;978.6;;;11.1;85.5
68873;BME280;55907;50.806;12.882;2022-10-03T02:37:58;978.7;;;11.1;85.4
68873;BME280;55907;50.806;12.882;2022-10-03T02:40:56;978.7;;;11.2;84.8
68873;BME280;55907;50.806;12.882;2022-10-03T02:44:06;978.7;;;11.2;84.9
68873;BME280;55907;50.806;12.882;2022-10-03T02:50:08;978.7;;;11.1;85.5
68873;BME280;55907;50.806;12.882;2022-10-03T02:53:07;978.7;;;11.0;85.8
68873;BME280;55907;50.806;12.882;2022-10-03T03:02:06;978.8;;;11.0;85.9
68873;BME280;55907;50.806;12.882;2022-10-03T03:05:09;978.7;;;11.0;85.9
68873;BME280;55907;50.806;12.882;2022-10-03T03:11:07;978.7;;;11.0;85.6
68873;BME280;55907;50.806;12.882;2022-10-03T03:17:13;978.8;;;10.9;86.1
68873;BME280;55907;50.806;12.882;2022-10-03T03:20:21;978.8;;;10.9;86.3
68873;BME280;55907;50.806;12.882;2022-10-03T03:26:23;978.9;;;10.8;87.3
68873;BME280;55907;50.806;12.882;2022-10-03T03:29:17;978.9;;;10.7;87.8
68873;BME280;55907;50.806;12.882;2022-10-03T03:32:23;978.9;;;10.7;88.6
68873;BME280;55907;50.806;12.882;2022-10-03T03:35:22;979.0;;;10.7;88.9
68873;BME280;55907;50.806;12.882;2022-10-03T03:38:25;979.0;;;10.6;89.3
68873;BME280;55907;50.806;12.882;2022-10-03T03:41:25;979.0;;;10.6;89.6
68873;BME280;55907;50.806;12.882;2022-10-03T03:44:35;979.1;;;10.6;90.5
68873;BME280;55907;50.806;12.882;2022-10-03T03:47:29;979.1;;;10.5;91.1
68873;BME280;55907;50.806;12.882;2022-10-03T03:53:32;979.1;;;10.5;91.4
68873;BME280;55907;50.806;12.882;2022-10-03T03:56:35;979.1;;;10.5;91.3
68873;BME280;55907;50.806;12.882;2022-10-03T03:59:39;979.1;;;10.5;91.3
68873;BME280;55907;50.806;12.882;2022-10-03T04:02:37;979.1;;;10.5;90.7
68873;BME280;55907;50.806;12.882;2022-10-03T04:05:39;979.1;;;10.4;91.2
68873;BME280;55907;50.806;12.882;2022-10-03T04:08:44;979.1;;;10.4;91.0
68873;BME280;55907;50.806;12.882;2022-10-03T04:11:43;979.1;;;10.4;90.9
68873;BME280;55907;50.806;12.882;2022-10-03T04:14:48;979.1;;;10.4;91.6
68873;BME280;55907;50.806;12.882;2022-10-03T04:17:43;979.2;;;10.4;91.2
68873;BME280;55907;50.806;12.882;2022-10-03T04:20:49;979.2;;;10.4;91.2
68873;BME280;55907;50.806;12.882;2022-10-03T04:23:48;979.2;;;10.4;91.5
68873;BME280;55907;50.806;12.882;2022-10-03T04:26:55;979.2;;;10.5;90.9
68873;BME280;55907;50.806;12.882;2022-10-03T04:29:45;979.2;;;10.4;91.5
68873;BME280;55907;50.806;12.882;2022-10-03T04:32:52;979.2;;;10.5;90.5
68873;BME280;55907;50.806;12.882;2022-10-03T04:35:52;979.3;;;10.5;90.8
68873;BME280;55907;50.806;12.882;2022-10-03T04:38:54;979.3;;;10.5;90.9
68873;BME280;55907;50.806;12.882;2022-10-03T04:41:52;979.3;;;10.5;91.2
68873;BME280;55907;50.806;12.882;2022-10-03T04:45:03;979.3;;;10.5;91.0
68873;BME280;55907;50.806;12.882;2022-10-03T04:47:54;979.3;;;10.5;90.8
68873;BME280;55907;50.806;12.882;2022-10-03T04:51:02;979.3;;;10.5;91.1
68873;BME280;55907;50.806;12.882;2022-10-03T04:53:59;979.3;;;10.5;91.1
68873;BME280;55907;50.806;12.882;2022-10-03T04:57:00;979.2;;;10.5;91.1
68873;BME280;55907;50.806;12.882;2022-10-03T05:00:05;979.3;;;10.4;91.4
68873;BME280;55907;50.806;12.882;2022-10-03T05:03:04;979.3;;;10.4;91.4
68873;BME280;55907;50.806;12.882;2022-10-03T05:06:04;979.4;;;10.4;92.0
68873;BME280;55907;50.806;12.882;2022-10-03T05:09:14;979.3;;;10.5;91.2
68873;BME280;55907;50.806;12.882;2022-10-03T05:12:08;979.3;;;10.5;91.2
68873;BME280;55907;50.806;12.882;2022-10-03T05:15:13;979.3;;;10.5;91.0
68873;BME280;55907;50.806;12.882;2022-10-03T05:18:13;979.4;;;10.5;91.1
68873;BME280;55907;50.806;12.882;2022-10-03T05:21:11;979.4;;;10.4;91.3
68873;BME280;55907;50.806;12.882;2022-10-03T05:24:18;979.4;;;10.4;91.6
68873;BME280;55907;50.806;12.882;2022-10-03T05:27:21;979.4;;;10.4;91.6
68873;BME280;55907;50.806;12.882;2022-10-03T05:30:16;979.5;;;10.5;91.1
68873;BME280;55907;50.806;12.882;2022-10-03T05:33:20;979.6;;;10.4;91.3
68873;BME280;55907;50.806;12.882;2022-10-03T05:36:24;979.6;;;10.4;91.8
68873;BME280;55907;50.806;12.882;2022-10-03T05:39:24;979.6;;;10.4;91.1
68873;BME280;55907;50.806;12.882;2022-10-03T05:42:29;979.6;;;10.4;91.7
68873;BME280;55907;50.806;12.882;2022-10-03T05:45:27;979.6;;;10.4;91.7
68873;BME280;55907;50.806;12.882;2022-10-03T05:48:29;979.7;;;10.6;91.1
68873;BME280;55907;50.806;12.882;2022-10-03T05:57:36;979.7;;;10.8;89.8
68873;BME280;55907;50.806;12.882;2022-10-03T06:00:33;979.8;;;10.7;89.6
68873;BME280;55907;50.806;12.882;2022-10-03T06:03:47;979.8;;;10.7;89.5
68873;BME280;55907;50.806;12.882;2022-10-03T06:06:33;979.8;;;10.7;89.7
68873;BME280;55907;50.806;12.882;2022-10-03T06:09:38;979.8;;;10.7;90.0
68873;BME280;55907;50.806;12.882;2022-10-03T06:12:40;979.9;;;10.8;89.8
68873;BME280;55907;50.806;12.882;2022-10-03T06:15:41;979.9;;;10.8;89.5
68873;BME280;55907;50.806;12.882;2022-10-03T06:18:53;980.0;;;10.8;89.9
68873;BME280;55907;50.806;12.882;2022-10-03T06:21:55;980.0;;;10.9;89.2
68873;BME280;55907;50.806;12.882;2022-10-03T06:24:59;980.0;;;10.9;89.0
68873;BME280;55907;50.806;12.882;2022-10-03T06:33:59;980.1;;;11.0;88.6
68873;BME280;55907;50.806;12.882;2022-10-03T06:36:58;980.1;;;11.0;88.5
68873;BME280;55907;50.806;12.882;2022-10-03T06:40:03;980.2;;;11.0;88.3
68873;BME280;55907;50.806;12.882;2022-10-03T06:42:54;980.2;;;11.1;88.2
68873;BME280;55907;50.806;12.882;2022-10-03T06:46:05;980.3;;;11.0;88.4
68873;BME280;55907;50.806;12.882;2022-10-03T06:49:09;980.3;;;11.0;88.1
68873;BME280;55907;50.806;12.882;2022-10-03T06:52:07;980.3;;;11.1;88.1
68873;BME280;55907;50.806;12.882;2022-10-03T06:55:12;980.4;;;11.1;87.6
68873;BME280;55907;50.806;12.882;2022-10-03T07:04:07;980.4;;;11.4;86.6
68873;BME280;55907;50.806;12.882;2022-10-03T07:07:09;980.5;;;11.4;86.2
68873;BME280;55907;50.806;12.882;2022-10-03T07:10:15;980.5;;;11.4;86.0
68873;BME280;55907;50.806;12.882;2022-10-03T07:16:18;980.6;;;11.4;86.5
68873;BME280;55907;50.806;12.882;2022-10-03T07:19:21;980.6;;;11.5;86.2
68873;BME280;55907;50.806;12.882;2022-10-03T07:22:25;980.6;;;11.5;86.0
68873;BME280;55907;50.806;12.882;2022-10-03T07:28:21;980.7;;;11.6;85.5
68873;BME280;55907;50.806;12.882;2022-10-03T07:31:20;980.7;;;11.7;85.3
68873;BME280;55907;50.806;12.882;2022-10-03T07:37:22;980.8;;;12.0;83.8
68873;BME280;55907;50.806;12.882;2022-10-03T07:40:23;980.8;;;12.1;83.5
68873;BME280;55907;50.806;12.882;2022-10-03T07:43:27;980.9;;;12.2;82.6
68873;BME280;55907;50.806;12.882;2022-10-03T07:46:37;980.9;;;12.2;82.7
68873;BME280;55907;50.806;12.882;2022-10-03T07:49:30;980.9;;;12.3;82.4
68873;BME280;55907;50.806;12.882;2022-10-03T07:52:38;980.9;;;12.2;82.3
68873;BME280;55907;50.806;12.882;2022-10-03T07:55:30;980.9;;;12.2;82.6
68873;BME280;55907;50.806;12.882;2022-10-03T07:58:41;980.9;;;12.3;82.8
68873;BME280;55907;50.806;12.882;2022-10-03T08:01:47;980.8;;;12.4;82.7
68873;BME280;55907;50.806;12.882;2022-10-03T08:07:45;980.9;;;12.2;82.5
68873;BME280;55907;50.806;12.882;2022-10-03T08:10:49;980.8;;;12.2;82.0
68873;BME280;55907;50.806;12.882;2022-10-03T08:13:46;980.8;;;12.3;81.9
68873;BME280;55907;50.806;12.882;2022-10-03T08:19:56;980.8;;;12.4;81.1
68873;BME280;55907;50.806;12.882;2022-10-03T08:22:45;980.8;;;12.5;81.3
68873;BME280;55907;50.806;12.882;2022-10-03T08:25:51;980.8;;;12.8;80.8
68873;BME280;55907;50.806;12.882;2022-10-03T08:28:49;980.8;;;13.0;79.1
68873;BME280;55907;50.806;12.882;2022-10-03T08:31:59;980.8;;;13.2;77.5
68873;BME280;55907;50.806;12.882;2022-10-03T08:34:58;980.8;;;13.4;77.4
68873;BME280;55907;50.806;12.882;2022-10-03T08:41:01;980.8;;;13.5;76.9
68873;BME280;55907;50.806;12.882;2022-10-03T08:50:06;980.9;;;13.6;76.7
68873;BME280;55907;50.806;12.882;2022-10-03T08:55:58;980.9;;;13.5;76.0
68873;BME280;55907;50.806;12.882;2022-10-03T08:59:11;980.8;;;13.6;75.4
68873;BME280;55907;50.806;12.882;2022-10-03T09:02:16;980.9;;;13.6;74.4
68873;BME280;55907;50.806;12.882;2022-10-03T09:17:17;981.0;;;13.8;75.2
68873;BME280;55907;50.806;12.882;2022-10-03T09:26:27;981.1;;;15.6;68.1
68873;BME280;55907;50.806;12.882;2022-10-03T09:29:20;981.1;;;15.9;65.2
68873;BME280;55907;50.806;12.882;2022-10-03T09:32:32;981.1;;;16.1;65.2
68873;BME280;55907;50.806;12.882;2022-10-03T09:44:32;981.1;;;15.1;67.3
68873;BME280;55907;50.806;12.882;2022-10-03T09:52:30;unavailable;;;unavailable;unavailable
68873;BME280;55907;50.806;12.882;2022-10-03T09:53:32;981.1;;;14.2;70.3
68873;BME280;55907;50.806;12.882;2022-10-03T09:59:37;981.0;;;13.9;72.5
68873;BME280;55907;50.806;12.882;2022-10-03T10:00:07;981.0;;;14.0;71.3
68873;BME280;55907;50.806;12.882;2022-10-03T10:02:44;981.1;;;13.9;71.5
68873;BME280;55907;50.806;12.882;2022-10-03T10:08:37;981.1;;;14.0;71.8
68873;BME280;55907;50.806;12.882;2022-10-03T10:11:51;981.1;;;14.0;71.3
68873;BME280;55907;50.806;12.882;2022-10-03T10:14:46;981.2;;;14.1;70.2
68873;BME280;55907;50.806;12.882;2022-10-03T10:20:53;981.1;;;14.7;69.4
68873;BME280;55907;50.806;12.882;2022-10-03T10:23:46;981.1;;;14.8;68.4
68873;BME280;55907;50.806;12.882;2022-10-03T10:26:48;981.1;;;14.8;68.1
68873;BME280;55907;50.806;12.882;2022-10-03T10:29:49;981.1;;;14.8;68.1
68873;BME280;55907;50.806;12.882;2022-10-03T10:42:04;981.0;;;15.4;64.7
68873;BME280;55907;50.806;12.882;2022-10-03T10:47:59;981.1;;;15.8;63.2
68873;BME280;55907;50.806;12.882;2022-10-03T10:54:05;981.2;;;14.8;67.6
68873;BME280;55907;50.806;12.882;2022-10-03T10:57:01;981.2;;;14.4;70.1
68873;BME280;55907;50.806;12.882;2022-10-03T11:00:08;981.2;;;14.4;71.3
68873;BME280;55907;50.806;12.882;2022-10-03T11:09:17;981.1;;;15.2;70.2
68873;BME280;55907;50.806;12.882;2022-10-03T11:27:25;981.0;;;16.9;62.8
68873;BME280;55907;50.806;12.882;2022-10-03T11:30:21;981.1;;;16.8;62.2
68873;BME280;55907;50.806;12.882;2022-10-03T11:36:26;981.2;;;16.4;62.2
68873;BME280;55907;50.806;12.882;2022-10-03T11:39:21;981.2;;;16.0;64.2
68873;BME280;55907;50.806;12.882;2022-10-03T11:42:21;981.2;;;15.7;64.8
68873;BME280;55907;50.806;12.882;2022-10-03T11:45:19;981.2;;;15.3;65.9
68873;BME280;55907;50.806;12.882;2022-10-03T11:48:30;981.2;;;15.2;65.6
68873;BME280;55907;50.806;12.882;2022-10-03T11:51:31;981.1;;;15.3;65.2
68873;BME280;55907;50.806;12.882;2022-10-03T11:54:22;981.2;;;15.6;64.6
68873;BME280;55907;50.806;12.882;2022-10-03T11:57:27;981.2;;;15.5;63.5
68873;BME280;55907;50.806;12.882;2022-10-03T12:00:24;981.2;;;15.5;64.5
68873;BME280;55907;50.806;12.882;2022-10-03T12:03:27;981.2;;;15.1;64.3
68873;BME280;55907;50.806;12.882;2022-10-03T12:06:41;981.2;;;14.9;65.0
68873;BME280;55907;50.806;12.882;2022-10-03T12:09:35;981.3;;;14.5;65.5
68873;BME280;55907;50.806;12.882;2022-10-03T12:12:33;981.2;;;14.5;66.3
68873;BME280;55907;50.806;12.882;2022-10-03T12:15:34;981.2;;;14.5;66.5
68873;BME280;55907;50.806;12.882;2022-10-03T12:18:50;981.2;;;14.7;65.9
68873;BME280;55907;50.806;12.882;2022-10-03T12:21:38;981.2;;;15.2;66.1
68873;BME280;55907;50.806;12.882;2022-10-03T12:24:39;981.2;;;15.9;63.4
68873;BME280;55907;50.806;12.882;2022-10-03T12:27:41;981.1;;;16.5;60.8
68873;BME280;55907;50.806;12.882;2022-10-03T12:30:42;981.2;;;16.8;60.3
68873;BME280;55907;50.806;12.882;2022-10-03T12:33:45;981.2;;;16.8;60.0
68873;BME280;55907;50.806;12.882;2022-10-03T12:36:49;981.2;;;16.8;57.9
68873;BME280;55907;50.806;12.882;2022-10-03T12:39:47;981.2;;;16.7;58.4
68873;BME280;55907;50.806;12.882;2022-10-03T12:42:47;981.1;;;16.9;58.9
68873;BME280;55907;50.806;12.882;2022-10-03T12:45:49;981.2;;;16.8;58.4
68873;BME280;55907;50.806;12.882;2022-10-03T12:48:50;981.2;;;16.6;58.5
68873;BME280;55907;50.806;12.882;2022-10-03T12:51:53;981.2;;;16.5;59.5
68873;BME280;55907;50.806;12.882;2022-10-03T12:55:00;981.2;;;16.6;58.6
68873;BME280;55907;50.806;12.882;2022-10-03T12:57:53;981.2;;;16.7;57.8
68873;BME280;55907;50.806;12.882;2022-10-03T13:00:56;981.2;;;16.6;56.5
68873;BME280;55907;50.806;12.882;2022-10-03T13:03:57;981.2;;;16.5;57.7
68873;BME280;55907;50.806;12.882;2022-10-03T13:07:01;981.2;;;16.5;58.3
68873;BME280;55907;50.806;12.882;2022-10-03T13:10:01;981.2;;;16.5;58.7
68873;BME280;55907;50.806;12.882;2022-10-03T13:13:07;981.2;;;16.4;59.5
68873;BME280;55907;50.806;12.882;2022-10-03T13:16:10;981.1;;;16.5;59.4
68873;BME280;55907;50.806;12.882;2022-10-03T13:19:02;981.1;;;16.8;58.3
68873;BME280;55907;50.806;12.882;2022-10-03T13:22:08;981.1;;;17.0;57.9
68873;BME280;55907;50.806;12.882;2022-10-03T13:25:12;981.1;;;16.9;57.4
68873;BME280;55907;50.806;12.882;2022-10-03T13:28:08;981.1;;;16.8;57.2
68873;BME280;55907;50.806;12.882;2022-10-03T13:31:12;981.1;;;16.7;57.6
68873;BME280;55907;50.806;12.882;2022-10-03T13:34:15;981.1;;;16.7;58.1
68873;BME280;55907;50.806;12.882;2022-10-03T13:37:17;981.1;;;16.6;58.2
68873;BME280;55907;50.806;12.882;2022-10-03T13:40:13;981.1;;;16.5;57.9
68873;BME280;55907;50.806;12.882;2022-10-03T13:43:15;981.1;;;16.4;58.1
68873;BME280;55907;50.806;12.882;2022-10-03T13:46:16;981.1;;;16.4;58.9
68873;BME280;55907;50.806;12.882;2022-10-03T13:49:21;981.1;;;16.4;59.3
68873;BME280;55907;50.806;12.882;2022-10-03T13:52:21;981.0;;;16.3;59.1
68873;BME280;55907;50.806;12.882;2022-10-03T13:55:21;981.0;;;16.3;59.3
68873;BME280;55907;50.806;12.882;2022-10-03T13:58:32;981.0;;;16.3;60.1
68873;BME280;55907;50.806;12.882;2022-10-03T14:01:27;980.9;;;16.3;59.8
68873;BME280;55907;50.806;12.882;2022-10-03T14:04:32;981.0;;;16.3;59.5
68873;BME280;55907;50.806;12.882;2022-10-03T14:07:28;981.0;;;16.3;59.0
68873;BME280;55907;50.806;12.882;2022-10-03T14:10:42;981.0;;;16.2;60.1
68873;BME280;55907;50.806;12.882;2022-10-03T14:13:31;981.1;;;16.1;60.3
68873;BME280;55907;50.806;12.882;2022-10-03T14:16:30;981.1;;;15.9;61.7
68873;BME280;55907;50.806;12.882;2022-10-03T14:19:33;981.0;;;15.8;62.1
68873;BME280;55907;50.806;12.882;2022-10-03T14:22:42;981.0;;;15.7;62.2
68873;BME280;55907;50.806;12.882;2022-10-03T14:25:34;981.1;;;15.7;62.1
68873;BME280;55907;50.806;12.882;2022-10-03T14:28:37;981.1;;;15.7;62.2
68873;BME280;55907;50.806;12.882;2022-10-03T14:31:40;981.1;;;15.7;61.7
68873;BME280;55907;50.806;12.882;2022-10-03T14:34:45;981.0;;;15.6;61.4
68873;BME280;55907;50.806;12.882;2022-10-03T14:37:41;981.1;;;15.6;61.4
68873;BME280;55907;50.806;12.882;2022-10-03T14:39:33;981.0;;;15.6;60.5
68873;BME280;55907;50.806;12.882;2022-10-03T14:40:44;981.0;;;15.6;61.2
68873;BME280;55907;50.806;12.882;2022-10-03T14:43:44;981.0;;;15.5;61.3
68873;BME280;55907;50.806;12.882;2022-10-03T14:46:47;981.0;;;15.6;61.3
68873;BME280;55907;50.806;12.882;2022-10-03T14:49:48;980.9;;;15.6;61.8
68873;BME280;55907;50.806;12.882;2022-10-03T14:52:49;980.9;;;15.6;61.9
68873;BME280;55907;50.806;12.882;2022-10-03T14:55:55;980.9;;;15.5;62.3
68873;BME280;55907;50.806;12.882;2022-10-03T14:58:50;980.8;;;15.5;62.7
68873;BME280;55907;50.806;12.882;2022-10-03T15:01:51;980.8;;;15.4;62.7
68873;BME280;55907;50.806;12.882;2022-10-03T15:04:54;980.8;;;15.4;62.6
68873;BME280;55907;50.806;12.882;2022-10-03T15:07:52;980.9;;;15.4;62.9
68873;BME280;55907;50.806;12.882;2022-10-03T15:10:54;980.8;;;15.3;63.4
68873;BME280;55907;50.806;12.882;2022-10-03T15:13:57;980.7;;;15.3;63.9
68873;BME280;55907;50.806;12.882;2022-10-03T15:16:58;980.7;;;15.2;64.4
68873;BME280;55907;50.806;12.882;2022-10-03T15:20:00;980.7;;;15.1;64.7
68873;BME280;55907;50.806;12.882;2022-10-03T15:23:01;980.8;;;15.0;65.1
68873;BME280;55907;50.806;12.882;2022-10-03T15:26:02;980.8;;;14.9;65.8
68873;BME280;55907;50.806;12.882;2022-10-03T15:29:05;980.8;;;14.8;65.9
68873;BME280;55907;50.806;12.882;2022-10-03T15:32:06;980.8;;;14.7;66.5
68873;BME280;55907;50.806;12.882;2022-10-03T15:35:06;980.8;;;14.6;67.2
68873;BME280;55907;50.806;12.882;2022-10-03T15:38:10;980.8;;;14.4;68.0
68873;BME280;55907;50.806;12.882;2022-10-03T15:41:11;980.9;;;14.3;69.2
68873;BME280;55907;50.806;12.882;2022-10-03T15:44:16;980.9;;;14.1;70.0
68873;BME280;55907;50.806;12.882;2022-10-03T15:47:14;980.9;;;14.1;70.6
68873;BME280;55907;50.806;12.882;2022-10-03T15:50:18;980.9;;;14.2;70.6
68873;BME280;55907;50.806;12.882;2022-10-03T15:53:19;980.9;;;14.2;70.0
68873;BME280;55907;50.806;12.882;2022-10-03T15:56:20;980.9;;;14.2;69.5
68873;BME280;55907;50.806;12.882;2022-10-03T15:59:20;980.8;;;14.1;70.5
68873;BME280;55907;50.806;12.882;2022-10-03T16:02:24;980.8;;;14.0;71.1
68873;BME280;55907;50.806;12.882;2022-10-03T16:05:21;980.8;;;13.9;71.0
68873;BME280;55907;50.806;12.882;2022-10-03T16:08:26;980.8;;;13.8;71.8
68873;BME280;55907;50.806;12.882;2022-10-03T16:11:25;980.8;;;13.8;72.2
68873;BME280;55907;50.806;12.882;2022-10-03T16:14:26;980.8;;;13.7;71.6
68873;BME280;55907;50.806;12.882;2022-10-03T16:17:32;980.7;;;13.8;71.8
68873;BME280;55907;50.806;12.882;2022-10-03T16:20:29;980.7;;;13.8;71.3
68873;BME280;55907;50.806;12.882;2022-10-03T16:23:32;980.7;;;13.8;71.7
68873;BME280;55907;50.806;12.882;2022-10-03T16:26:33;980.7;;;13.7;71.9
68873;BME280;55907;50.806;12.882;2022-10-03T16:29:34;980.6;;;13.6;72.6
68873;BME280;55907;50.806;12.882;2022-10-03T16:32:38;980.7;;;13.5;72.8
68873;BME280;55907;50.806;12.882;2022-10-03T16:35:37;980.7;;;13.5;73.5
68873;BME280;55907;50.806;12.882;2022-10-03T16:38:38;980.7;;;13.5;72.7
68873;BME280;55907;50.806;12.882;2022-10-03T16:41:40;980.8;;;13.5;73.2
68873;BME280;55907;50.806;12.882;2022-10-03T16:44:47;980.8;;;13.7;73.4
68873;BME280;55907;50.806;12.882;2022-10-03T16:47:41;980.8;;;13.6;73.0
68873;BME280;55907;50.806;12.882;2022-10-03T16:50:46;980.8;;;13.6;72.1
68873;BME280;55907;50.806;12.882;2022-10-03T16:53:46;980.8;;;13.6;72.1
68873;BME280;55907;50.806;12.882;2022-10-03T16:56:47;980.8;;;13.6;71.6
68873;BME280;55907;50.806;12.882;2022-10-03T16:59:48;980.8;;;13.6;71.8
68873;BME280;55907;50.806;12.882;2022-10-03T17:02:49;980.8;;;13.7;71.8
68873;BME280;55907;50.806;12.882;2022-10-03T17:05:51;980.8;;;13.6;72.0
68873;BME280;55907;50.806;12.882;2022-10-03T17:08:52;980.8;;;13.6;71.7
68873;BME280;55907;50.806;12.882;2022-10-03T17:11:55;980.9;;;13.6;71.8
68873;BME280;55907;50.806;12.882;2022-10-03T17:14:56;980.9;;;13.6;71.8
68873;BME280;55907;50.806;12.882;2022-10-03T17:17:58;980.9;;;13.6;71.7
68873;BME280;55907;50.806;12.882;2022-10-03T17:21:02;980.9;;;13.5;72.0
68873;BME280;55907;50.806;12.882;2022-10-03T17:24:04;980.9;;;13.5;72.2
68873;BME280;55907;50.806;12.882;2022-10-03T17:27:03;980.9;;;13.6;72.0
68873;BME280;55907;50.806;12.882;2022-10-03T17:33:07;980.9;;;13.5;71.8
68873;BME280;55907;50.806;12.882;2022-10-03T17:36:28;980.9;;;13.5;72.2
68873;BME280;55907;50.806;12.882;2022-10-03T17:39:12;980.9;;;13.4;72.8
68873;BME280;55907;50.806;12.882;2022-10-03T17:42:14;980.9;;;13.4;73.3
68873;BME280;55907;50.806;12.882;2022-10-03T17:45:16;981.0;;;13.3;73.7
68873;BME280;55907;50.806;12.882;2022-10-03T17:48:13;981.0;;;13.3;74.6
68873;BME280;55907;50.806;12.882;2022-10-03T17:51:30;980.9;;;13.2;75.4
68873;BME280;55907;50.806;12.882;2022-10-03T17:54:15;981.0;;;13.1;76.3
68873;BME280;55907;50.806;12.882;2022-10-03T17:57:17;980.9;;;13.0;77.1
68873;BME280;55907;50.806;12.882;2022-10-03T18:00:19;980.9;;;12.9;78.2
68873;BME280;55907;50.806;12.882;2022-10-03T18:03:22;980.9;;;12.8;79.2
68873;BME280;55907;50.806;12.882;2022-10-03T18:06:31;980.9;;;12.7;79.5
68873;BME280;55907;50.806;12.882;2022-10-03T18:09:26;980.9;;;12.7;79.8
68873;BME280;55907;50.806;12.882;2022-10-03T18:12:29;981.0;;;12.7;79.2
68873;BME280;55907;50.806;12.882;2022-10-03T18:15:36;981.0;;;12.7;80.5
68873;BME280;55907;50.806;12.882;2022-10-03T18:18:41;981.1;;;12.7;80.2
68873;BME280;55907;50.806;12.882;2022-10-03T18:21:34;981.1;;;12.7;79.5
68873;BME280;55907;50.806;12.882;2022-10-03T18:27:43;981.1;;;12.6;81.3
68873;BME280;55907;50.806;12.882;2022-10-03T18:30:33;981.2;;;12.4;83.0
68873;BME280;55907;50.806;12.882;2022-10-03T18:33:40;981.2;;;12.4;83.3
68873;BME280;55907;50.806;12.882;2022-10-03T18:36:36;981.3;;;12.4;84.0
68873;BME280;55907;50.806;12.882;2022-10-03T18:39:37;981.2;;;12.4;84.9
68873;BME280;55907;50.806;12.882;2022-10-03T18:42:37;981.2;;;12.3;86.2
68873;BME280;55907;50.806;12.882;2022-10-03T18:45:42;981.1;;;12.2;86.6
68873;BME280;55907;50.806;12.882;2022-10-03T18:48:44;981.1;;;12.2;86.9
68873;BME280;55907;50.806;12.882;2022-10-03T18:51:43;981.1;;;12.1;86.7
68873;BME280;55907;50.806;12.882;2022-10-03T18:54:52;981.2;;;12.1;85.9
68873;BME280;55907;50.806;12.882;2022-10-03T18:57:48;981.1;;;12.1;86.1
68873;BME280;55907;50.806;12.882;2022-10-03T19:00:49;981.1;;;12.1;85.9
68873;BME280;55907;50.806;12.882;2022-10-03T19:03:50;981.1;;;12.1;85.8
68873;BME280;55907;50.806;12.882;2022-10-03T19:06:51;981.2;;;12.1;86.1
68873;BME280;55907;50.806;12.882;2022-10-03T19:10:02;981.2;;;12.1;86.1
68873;BME280;55907;50.806;12.882;2022-10-03T19:12:57;981.2;;;12.1;86.6
68873;BME280;55907;50.806;12.882;2022-10-03T19:16:07;981.2;;;12.1;86.7
68873;BME280;55907;50.806;12.882;2022-10-03T19:19:00;981.2;;;12.1;87.4
68873;BME280;55907;50.806;12.882;2022-10-03T19:22:00;981.2;;;12.0;87.8